Time;durP1;ratioP1;P1;durP2;ratioP2;P2;SDS_P1;SDS_P2;PMS_P1;PMS_P2;Temp;Humidity;BMP_temperature;BMP_pressure;BME280_temperature;BME280_humidity;BME280_pressure;Samples;Min_cycle;Max_cycle;Signal;HPM_P1;HPM_P2
2023/12/26 00:00:12;;;;;;;11.10;10.40;;;6.20;99.90;;;;;;4879103;29;20288;-75
2023/12/26 00:02:39;;;;;;;11.57;10.87;;;6.20;99.90;;;;;;4880120;29;20221;-76
2023/12/26 00:05:06;;;;;;;11.37;10.67;;;6.10;99.90;;;;;;4874739;29;20283;-77
2023/12/26 00:07:32;;;;;;;11.60;10.80;;;6.10;99.90;;;;;;4879949;29;20280;-76
2023/12/26 00:09:59;;;;;;;11.30;10.60;;;6.10;99.90;;;;;;4879466;29;20684;-76
2023/12/26 00:12:27;;;;;;;12.03;11.13;;;6.10;99.90;;;;;;4879653;29;20206;-76
2023/12/26 00:14:54;;;;;;;11.17;10.37;;;6.10;99.90;;;;;;4879484;29;20599;-76
2023/12/26 00:17:21;;;;;;;11.27;10.50;;;6.00;99.90;;;;;;4879643;29;20690;-76
2023/12/26 00:19:49;;;;;;;11.07;10.37;;;6.00;99.90;;;;;;4879520;29;20266;-76
2023/12/26 00:22:16;;;;;;;11.40;10.60;;;6.00;99.90;;;;;;4886419;29;20584;-77
2023/12/26 00:24:43;;;;;;;11.63;10.83;;;5.90;99.90;;;;;;4879509;29;20587;-76
2023/12/26 00:27:10;;;;;;;11.50;10.70;;;5.90;99.90;;;;;;4879288;29;20226;-76
2023/12/26 00:29:38;;;;;;;11.90;11.10;;;5.80;99.90;;;;;;4893729;29;20209;-76
2023/12/26 00:32:05;;;;;;;11.90;11.03;;;5.80;99.90;;;;;;4893676;29;20300;-76
2023/12/26 00:34:32;;;;;;;12.00;11.13;;;5.70;99.90;;;;;;4893666;29;20276;-76
2023/12/26 00:36:59;;;;;;;11.80;11.00;;;5.70;99.90;;;;;;4893755;29;20213;-76
2023/12/26 00:39:25;;;;;;;11.90;11.10;;;5.70;99.90;;;;;;4879331;29;20262;-76
2023/12/26 00:41:52;;;;;;;11.63;10.83;;;5.70;99.90;;;;;;4893272;29;20233;-76
2023/12/26 00:44:19;;;;;;;11.70;10.90;;;5.60;99.90;;;;;;4876151;29;20203;-76
2023/12/26 00:46:47;;;;;;;12.40;11.50;;;5.60;99.90;;;;;;4879069;29;20210;-76
2023/12/26 00:49:15;;;;;;;11.97;11.07;;;5.60;99.90;;;;;;4874831;29;20208;-76
2023/12/26 00:51:42;;;;;;;12.10;11.20;;;5.60;99.90;;;;;;4893246;29;20296;-76
2023/12/26 00:54:09;;;;;;;11.90;11.10;;;5.50;99.90;;;;;;4877871;29;20289;-76
2023/12/26 00:56:35;;;;;;;12.13;11.33;;;5.50;99.90;;;;;;4876940;29;20748;-76
2023/12/26 00:59:02;;;;;;;11.83;11.03;;;5.50;99.90;;;;;;4892846;29;20733;-76
2023/12/26 01:01:31;;;;;;;12.07;11.17;;;5.50;99.90;;;;;;4893127;29;20229;-76
2023/12/26 01:03:59;;;;;;;11.73;10.93;;;5.60;99.90;;;;;;4876550;29;20194;-76
2023/12/26 01:06:26;;;;;;;11.63;10.87;;;5.60;99.90;;;;;;4892716;29;20283;-76
2023/12/26 01:08:53;;;;;;;11.40;10.70;;;5.60;99.90;;;;;;4875615;29;20222;-76
2023/12/26 01:11:20;;;;;;;11.30;10.60;;;5.60;99.90;;;;;;4870927;29;20233;-76
2023/12/26 01:13:46;;;;;;;11.30;10.40;;;5.60;99.90;;;;;;4878482;29;20256;-75
2023/12/26 01:16:13;;;;;;;11.47;10.63;;;5.70;99.90;;;;;;4892987;29;20283;-76
2023/12/26 01:18:40;;;;;;;11.47;10.77;;;5.70;99.90;;;;;;4878570;29;20206;-76
2023/12/26 01:21:08;;;;;;;11.23;10.53;;;5.70;99.90;;;;;;4892351;29;20312;-76
2023/12/26 01:23:35;;;;;;;10.90;10.30;;;5.70;99.90;;;;;;4870154;29;20213;-76
2023/12/26 01:26:02;;;;;;;11.83;10.93;;;5.70;99.90;;;;;;4877998;29;20689;-76
2023/12/26 01:28:29;;;;;;;11.43;10.73;;;5.70;99.90;;;;;;4878370;29;20207;-76
2023/12/26 01:30:55;;;;;;;12.20;11.30;;;5.70;99.90;;;;;;4872071;29;20219;-76
2023/12/26 01:33:22;;;;;;;11.83;10.90;;;5.70;99.90;;;;;;4871448;29;20692;-76
2023/12/26 01:35:50;;;;;;;11.50;10.80;;;5.70;99.90;;;;;;4876490;29;20252;-77
2023/12/26 01:38:18;;;;;;;11.50;10.80;;;5.70;99.90;;;;;;4892491;29;20229;-76
2023/12/26 01:40:45;;;;;;;11.90;11.00;;;5.70;99.90;;;;;;4877874;29;20234;-76
2023/12/26 01:43:11;;;;;;;10.97;10.37;;;5.70;99.90;;;;;;4891741;29;20234;-76
2023/12/26 01:45:38;;;;;;;11.40;10.70;;;5.70;99.90;;;;;;4878211;29;20567;-76
2023/12/26 01:48:07;;;;;;;11.57;10.87;;;5.70;99.90;;;;;;4892256;29;20201;-76
2023/12/26 01:50:35;;;;;;;11.13;10.53;;;5.70;99.90;;;;;;4877871;29;20226;-77
2023/12/26 01:53:02;;;;;;;11.13;10.50;;;5.70;99.90;;;;;;4892154;29;20276;-76
2023/12/26 01:55:32;;;;;;;11.70;10.90;;;5.70;99.90;;;;;;4884254;29;20764;-76
2023/12/26 01:58:00;;;;;;;11.43;10.73;;;5.70;99.90;;;;;;4896211;29;20207;-76
2023/12/26 02:00:27;;;;;;;11.27;10.50;;;5.60;99.90;;;;;;4873098;29;20238;-76
2023/12/26 02:02:54;;;;;;;11.40;10.60;;;5.60;99.90;;;;;;4895990;29;20689;-76
2023/12/26 02:05:21;;;;;;;11.07;10.30;;;5.70;99.90;;;;;;4871152;29;20198;-76
2023/12/26 02:07:48;;;;;;;10.90;10.10;;;5.70;99.90;;;;;;4874211;29;20630;-76
2023/12/26 02:10:15;;;;;;;11.17;10.50;;;5.70;99.90;;;;;;4871442;29;20469;-76
2023/12/26 02:12:44;;;;;;;11.30;10.60;;;5.80;99.90;;;;;;4892257;29;20233;-77
2023/12/26 02:15:13;;;;;;;11.00;10.30;;;5.80;99.90;;;;;;4871872;29;20215;-76
2023/12/26 02:17:40;;;;;;;11.30;10.60;;;5.90;99.90;;;;;;4891719;29;20221;-76
2023/12/26 02:20:09;;;;;;;11.27;10.43;;;5.90;99.90;;;;;;4872573;29;20318;-76
2023/12/26 02:22:35;;;;;;;11.50;10.80;;;5.90;99.90;;;;;;4877740;29;20211;-77
2023/12/26 02:25:04;;;;;;;11.80;10.90;;;6.00;99.90;;;;;;4891710;29;20207;-76
2023/12/26 02:27:34;;;;;;;11.33;10.53;;;6.00;99.90;;;;;;4868511;29;20215;-76
2023/12/26 02:30:02;;;;;;;11.60;10.80;;;6.10;99.90;;;;;;4895085;29;20227;-75
2023/12/26 02:32:31;;;;;;;11.50;10.70;;;6.20;99.90;;;;;;4877561;29;20209;-77
2023/12/26 02:35:00;;;;;;;11.60;10.60;;;6.20;99.90;;;;;;4882752;29;20255;-76
2023/12/26 02:37:28;;;;;;;11.90;11.00;;;6.30;99.90;;;;;;4870557;29;20203;-77
2023/12/26 02:39:55;;;;;;;11.33;10.53;;;6.40;99.90;;;;;;4872837;29;20706;-76
2023/12/26 02:42:24;;;;;;;11.23;10.43;;;6.40;99.90;;;;;;4876429;29;20231;-76
2023/12/26 02:44:52;;;;;;;11.73;10.83;;;6.40;99.90;;;;;;4866986;29;20590;-76
2023/12/26 02:47:18;;;;;;;11.77;10.90;;;6.50;99.90;;;;;;4890658;29;20211;-76
2023/12/26 02:49:45;;;;;;;12.13;11.10;;;6.50;99.90;;;;;;4877504;29;20290;-76
2023/12/26 02:52:12;;;;;;;11.27;10.57;;;6.60;99.90;;;;;;4876523;29;20224;-76
2023/12/26 02:54:39;;;;;;;11.37;10.67;;;6.60;99.90;;;;;;4877333;29;20290;-76
2023/12/26 02:57:06;;;;;;;11.73;11.03;;;6.70;99.90;;;;;;4891491;29;20259;-76
2023/12/26 02:59:34;;;;;;;11.30;10.63;;;6.70;99.90;;;;;;4877173;29;20222;-76
2023/12/26 03:02:01;;;;;;;12.30;11.40;;;6.70;99.90;;;;;;4891428;29;20247;-76
2023/12/26 03:04:27;;;;;;;11.50;10.80;;;6.80;99.90;;;;;;4877241;29;20203;-76
2023/12/26 03:06:54;;;;;;;11.83;10.93;;;6.80;99.90;;;;;;4875329;29;20215;-77
2023/12/26 03:09:22;;;;;;;11.53;10.73;;;6.80;99.90;;;;;;4876982;29;20681;-77
2023/12/26 03:11:49;;;;;;;11.20;10.50;;;6.80;99.90;;;;;;4875723;29;20236;-77
2023/12/26 03:14:16;;;;;;;11.70;10.87;;;6.80;99.90;;;;;;4875319;29;20263;-77
2023/12/26 03:16:44;;;;;;;11.80;11.00;;;6.80;99.90;;;;;;4869094;29;20312;-77
2023/12/26 03:19:11;;;;;;;11.30;10.70;;;6.80;99.90;;;;;;4877022;29;20269;-76
2023/12/26 03:21:38;;;;;;;11.53;10.83;;;6.80;99.90;;;;;;4869529;29;20303;-76
2023/12/26 03:24:05;;;;;;;11.93;11.13;;;6.80;99.90;;;;;;4871593;29;20205;-76
2023/12/26 03:26:32;;;;;;;11.33;10.63;;;6.80;99.90;;;;;;4884041;29;20685;-76
2023/12/26 03:28:59;;;;;;;11.70;10.80;;;6.80;99.90;;;;;;4876808;29;20216;-77
2023/12/26 03:31:26;;;;;;;11.10;10.40;;;6.80;99.90;;;;;;4880187;29;20276;-77
2023/12/26 03:33:55;;;;;;;11.83;10.70;;;6.80;99.90;;;;;;4871962;29;20699;-76
2023/12/26 03:36:21;;;;;;;11.80;10.90;;;6.80;99.90;;;;;;4894597;29;20253;-76
2023/12/26 03:38:48;;;;;;;11.03;10.33;;;6.80;99.90;;;;;;4879977;29;20211;-76
2023/12/26 03:41:15;;;;;;;10.70;10.10;;;6.80;99.90;;;;;;4877748;29;20263;-76
2023/12/26 03:43:42;;;;;;;11.27;10.47;;;6.80;99.90;;;;;;4875301;29;20231;-76
2023/12/26 03:46:11;;;;;;;11.30;10.40;;;6.80;99.90;;;;;;4895612;29;20589;-78
2023/12/26 03:48:38;;;;;;;11.50;10.60;;;6.80;99.90;;;;;;4902121;29;20296;-76
2023/12/26 03:51:06;;;;;;;10.93;10.23;;;6.90;99.90;;;;;;4893788;29;20216;-76
2023/12/26 03:53:33;;;;;;;11.07;10.37;;;6.80;99.90;;;;;;4894061;29;20209;-77
2023/12/26 03:56:42;;;;;;;11.20;10.50;;;6.80;99.90;;;;;;4899199;29;20284;-77
2023/12/26 03:59:46;;;;;;;11.03;10.43;;;6.80;99.90;;;;;;4885141;29;20328;-79
2023/12/26 04:06:03;;;;;;;10.73;10.03;;;6.90;99.90;;;;;;4877010;29;20216;-78
2023/12/26 04:09:08;;;;;;;11.20;10.50;;;6.90;99.90;;;;;;4859379;29;20628;-78
2023/12/26 04:23:35;;;;;;;11.53;10.73;;;7.00;99.90;;;;;;4805823;29;20214;-77
2023/12/26 04:26:03;;;;;;;11.33;10.40;;;7.10;99.90;;;;;;4843217;29;20289;-78
2023/12/26 04:28:29;;;;;;;11.13;10.37;;;7.10;99.90;;;;;;4830684;29;20202;-77
2023/12/26 04:30:56;;;;;;;11.20;10.40;;;7.10;99.90;;;;;;4895321;29;20782;-77
2023/12/26 04:33:25;;;;;;;11.10;10.30;;;7.10;99.90;;;;;;4895443;29;20205;-77
2023/12/26 04:35:52;;;;;;;10.80;10.20;;;7.10;99.90;;;;;;4895905;29;20209;-77
2023/12/26 04:38:19;;;;;;;10.83;9.93;;;7.10;99.90;;;;;;4895269;29;20242;-77
2023/12/26 04:40:47;;;;;;;10.93;10.13;;;7.10;99.90;;;;;;4895022;29;20218;-77
2023/12/26 04:43:15;;;;;;;10.57;9.97;;;7.10;99.90;;;;;;4875993;29;20209;-77
2023/12/26 04:45:42;;;;;;;10.87;10.07;;;7.10;99.90;;;;;;4895601;29;20218;-77
2023/12/26 04:48:09;;;;;;;11.17;10.37;;;7.10;99.90;;;;;;4895135;29;20209;-77
2023/12/26 04:50:37;;;;;;;10.77;10.00;;;7.10;99.90;;;;;;4894538;29;20221;-77
2023/12/26 04:53:05;;;;;;;11.17;10.23;;;7.20;99.90;;;;;;4880064;29;20236;-78
2023/12/26 04:55:33;;;;;;;11.90;10.70;;;7.20;99.90;;;;;;4895212;29;20551;-77
2023/12/26 04:58:01;;;;;;;11.47;10.73;;;7.20;99.90;;;;;;4895593;29;20669;-77
2023/12/26 05:00:28;;;;;;;12.93;11.80;;;7.20;99.90;;;;;;4901972;29;20237;-77
2023/12/26 05:02:56;;;;;;;11.30;10.50;;;7.20;99.90;;;;;;4895179;29;20281;-79
2023/12/26 05:05:23;;;;;;;11.37;10.57;;;7.20;99.90;;;;;;4902570;29;20200;-77
2023/12/26 05:07:50;;;;;;;10.83;10.00;;;7.20;99.90;;;;;;4894425;29;20240;-78
2023/12/26 05:10:16;;;;;;;11.47;10.37;;;7.20;99.90;;;;;;4894517;29;20228;-77
2023/12/26 05:12:43;;;;;;;10.73;10.03;;;7.20;99.90;;;;;;4898224;29;20209;-77
2023/12/26 05:15:12;;;;;;;11.07;10.00;;;7.20;99.90;;;;;;4879121;29;20699;-76
2023/12/26 05:17:38;;;;;;;10.77;9.97;;;7.20;99.90;;;;;;4896249;29;20208;-78
2023/12/26 05:20:06;;;;;;;11.60;10.80;;;7.30;99.90;;;;;;4878912;29;20595;-77
2023/12/26 05:22:33;;;;;;;11.47;10.60;;;7.20;99.90;;;;;;4879628;29;20756;-77
2023/12/26 05:25:00;;;;;;;11.30;10.60;;;7.20;99.90;;;;;;4875210;29;20577;-78
2023/12/26 05:27:29;;;;;;;10.60;9.90;;;7.30;99.90;;;;;;4878990;29;20209;-78
2023/12/26 05:30:07;;;;;;;11.43;10.53;;;7.20;99.90;;;;;;4893891;29;20212;-83
2023/12/26 05:36:48;;;;;;;11.40;10.50;;;7.30;99.90;;;;;;4843321;29;20364;-77
2023/12/26 05:39:24;;;;;;;10.80;10.10;;;7.30;99.90;;;;;;4882543;29;20198;-77
2023/12/26 05:42:02;;;;;;;11.10;10.40;;;7.30;99.90;;;;;;4878416;29;20228;-77
2023/12/26 05:45:00;;;;;;;10.90;10.20;;;7.30;99.90;;;;;;4893439;29;20237;-78
2023/12/26 05:47:27;;;;;;;10.97;10.07;;;7.30;99.90;;;;;;4885823;29;20209;-76
2023/12/26 05:49:57;;;;;;;12.07;10.63;;;7.30;99.90;;;;;;4895544;29;20682;-77
2023/12/26 05:52:25;;;;;;;11.20;10.40;;;7.30;99.90;;;;;;4872550;29;20225;-77
2023/12/26 05:54:52;;;;;;;11.50;10.67;;;7.30;99.90;;;;;;4900211;29;20190;-77
2023/12/26 05:57:19;;;;;;;10.43;9.83;;;7.30;99.90;;;;;;4881464;29;20219;-77
2023/12/26 05:59:46;;;;;;;11.30;10.50;;;7.30;99.90;;;;;;4880834;29;20202;-77
2023/12/26 06:02:13;;;;;;;10.73;10.03;;;7.30;99.90;;;;;;4879285;29;20235;-76
2023/12/26 06:04:39;;;;;;;10.60;9.90;;;7.30;99.90;;;;;;4894137;29;20262;-77
2023/12/26 06:07:07;;;;;;;10.93;10.03;;;7.30;99.90;;;;;;4894101;29;20205;-77
2023/12/26 06:09:36;;;;;;;11.20;10.30;;;7.30;99.90;;;;;;4879691;29;20264;-77
2023/12/26 06:12:03;;;;;;;10.73;10.03;;;7.30;99.90;;;;;;4884432;29;20209;-77
2023/12/26 06:14:30;;;;;;;11.03;10.23;;;7.30;99.90;;;;;;4893537;29;20224;-79
2023/12/26 06:20:29;;;;;;;11.20;10.30;;;7.30;99.90;;;;;;4828542;29;20235;-78
2023/12/26 06:22:56;;;;;;;10.87;10.17;;;7.30;99.90;;;;;;4893889;29;20220;-79
2023/12/26 06:25:24;;;;;;;10.60;9.90;;;7.30;99.90;;;;;;4903504;29;20216;-78
2023/12/26 06:27:51;;;;;;;11.30;10.50;;;7.30;99.90;;;;;;4878516;29;20231;-77
2023/12/26 06:30:18;;;;;;;11.47;10.67;;;7.30;99.90;;;;;;4894369;29;20225;-77
2023/12/26 06:32:45;;;;;;;11.30;10.50;;;7.20;99.90;;;;;;4872956;29;20196;-77
2023/12/26 06:35:13;;;;;;;10.90;10.20;;;7.20;99.90;;;;;;4893313;29;20241;-78
2023/12/26 06:37:41;;;;;;;10.63;10.03;;;7.20;99.90;;;;;;4893045;29;20208;-78
2023/12/26 06:40:09;;;;;;;11.20;10.30;;;7.20;99.90;;;;;;4893693;29;20314;-77
2023/12/26 06:42:40;;;;;;;11.20;10.30;;;7.20;99.90;;;;;;4888847;29;20296;-79
2023/12/26 06:45:08;;;;;;;11.40;10.50;;;7.10;99.90;;;;;;4892432;29;20202;-77
2023/12/26 06:47:35;;;;;;;10.80;10.00;;;7.10;99.90;;;;;;4874156;29;20210;-76
2023/12/26 06:50:02;;;;;;;11.40;10.43;;;7.10;99.90;;;;;;4892872;29;20201;-77
2023/12/26 06:52:29;;;;;;;11.27;10.33;;;7.10;99.90;;;;;;4889513;29;20226;-76
2023/12/26 06:54:55;;;;;;;10.93;10.17;;;7.10;99.90;;;;;;4869349;29;20215;-76
2023/12/26 06:57:25;;;;;;;11.33;10.63;;;7.10;99.90;;;;;;4893168;29;20227;-83
2023/12/26 06:59:53;;;;;;;11.30;10.60;;;7.10;99.90;;;;;;4893616;29;20208;-78
2023/12/26 07:02:20;;;;;;;11.63;10.83;;;7.10;99.90;;;;;;4893943;29;20222;-79
2023/12/26 07:04:47;;;;;;;11.10;10.40;;;7.10;99.90;;;;;;4893343;29;20214;-77
2023/12/26 07:07:14;;;;;;;11.90;10.90;;;7.10;99.90;;;;;;4883002;29;20193;-77
2023/12/26 07:09:40;;;;;;;11.37;10.57;;;7.10;99.90;;;;;;4882941;29;20683;-77
2023/12/26 07:12:08;;;;;;;10.70;10.00;;;7.20;99.90;;;;;;4896658;29;20257;-77
2023/12/26 07:14:34;;;;;;;11.60;10.50;;;7.20;99.90;;;;;;4883524;29;20209;-77
2023/12/26 07:17:02;;;;;;;10.77;10.17;;;7.20;99.90;;;;;;4881970;29;20201;-77
2023/12/26 07:19:29;;;;;;;11.80;11.00;;;7.20;99.90;;;;;;4875950;29;20224;-77
2023/12/26 07:21:56;;;;;;;11.17;10.50;;;7.20;99.90;;;;;;4896032;29;20276;-77
2023/12/26 07:24:23;;;;;;;11.00;10.27;;;7.20;99.90;;;;;;4896635;29;20212;-77
2023/12/26 07:26:50;;;;;;;11.33;10.53;;;7.20;99.90;;;;;;4895754;29;20201;-77
2023/12/26 07:29:18;;;;;;;11.20;10.40;;;7.20;99.90;;;;;;4880527;29;20671;-79
2023/12/26 07:31:45;;;;;;;11.70;10.90;;;7.30;99.90;;;;;;4884577;29;20278;-78
2023/12/26 07:34:14;;;;;;;11.10;10.23;;;7.20;99.90;;;;;;4884025;29;20208;-80
2023/12/26 07:36:41;;;;;;;12.10;11.20;;;7.30;99.90;;;;;;4875911;29;20677;-81
2023/12/26 07:39:08;;;;;;;11.50;10.70;;;7.30;99.90;;;;;;4883179;29;20220;-77
2023/12/26 07:41:35;;;;;;;11.10;10.27;;;7.30;99.90;;;;;;4882459;29;20279;-77
2023/12/26 07:44:02;;;;;;;11.10;10.23;;;7.30;99.90;;;;;;4881722;29;20209;-77
2023/12/26 07:46:28;;;;;;;11.37;10.57;;;7.40;99.90;;;;;;4880365;29;20629;-77
2023/12/26 07:48:55;;;;;;;11.30;10.60;;;7.40;99.90;;;;;;4881574;29;20197;-77
2023/12/26 07:51:25;;;;;;;11.20;10.50;;;7.40;99.90;;;;;;4882141;29;20253;-79
2023/12/26 07:53:52;;;;;;;11.30;10.50;;;7.40;99.90;;;;;;4882104;29;20682;-75
2023/12/26 07:56:19;;;;;;;11.43;10.60;;;7.40;99.90;;;;;;4885061;29;20236;-76
2023/12/26 07:58:46;;;;;;;11.73;10.53;;;7.40;99.90;;;;;;4883350;29;20266;-75
2023/12/26 08:01:13;;;;;;;11.77;10.87;;;7.50;99.90;;;;;;4878485;29;20277;-75
2023/12/26 08:03:40;;;;;;;10.93;10.13;;;7.50;99.90;;;;;;4893987;29;20244;-74
2023/12/26 08:06:07;;;;;;;11.23;10.40;;;7.50;99.90;;;;;;4905006;29;20205;-75
2023/12/26 08:08:35;;;;;;;11.17;10.47;;;7.50;99.90;;;;;;4884527;29;20210;-75
2023/12/26 08:11:02;;;;;;;11.07;10.10;;;7.50;99.90;;;;;;4874240;29;20252;-76
2023/12/26 08:13:28;;;;;;;11.93;10.80;;;7.50;99.90;;;;;;4880657;29;20205;-76
2023/12/26 08:15:55;;;;;;;11.67;10.60;;;7.50;99.90;;;;;;4879126;29;20201;-76
2023/12/26 08:18:23;;;;;;;11.20;10.50;;;7.50;99.90;;;;;;4879308;29;20217;-76
2023/12/26 08:20:50;;;;;;;11.20;10.30;;;7.60;99.90;;;;;;4882216;29;20261;-77
2023/12/26 08:23:16;;;;;;;11.00;10.20;;;7.60;99.90;;;;;;4889973;29;20232;-77
2023/12/26 08:25:44;;;;;;;11.57;10.50;;;7.60;99.90;;;;;;4878525;29;20240;-76
2023/12/26 08:28:12;;;;;;;11.17;10.40;;;7.70;99.90;;;;;;4879627;29;20675;-75
2023/12/26 08:30:39;;;;;;;10.93;10.23;;;7.70;99.90;;;;;;4879533;29;20314;-76
2023/12/26 08:33:06;;;;;;;11.47;10.67;;;7.80;99.90;;;;;;4893940;29;20260;-77
2023/12/26 08:35:34;;;;;;;11.37;10.30;;;7.80;99.90;;;;;;4883891;29;20672;-76
2023/12/26 08:38:00;;;;;;;10.80;10.10;;;7.90;99.90;;;;;;4878831;29;20225;-77
2023/12/26 08:40:27;;;;;;;10.67;9.97;;;7.90;99.90;;;;;;4894310;29;20289;-75
2023/12/26 08:42:55;;;;;;;11.40;10.43;;;8.00;99.90;;;;;;4879157;29;20312;-75
2023/12/26 08:45:22;;;;;;;10.33;9.63;;;8.00;99.90;;;;;;4900093;29;20208;-75
2023/12/26 08:47:52;;;;;;;9.97;9.27;;;8.10;99.90;;;;;;4893850;29;20243;-75
2023/12/26 08:50:19;;;;;;;10.23;9.53;;;8.20;99.90;;;;;;4890422;29;20731;-76
2023/12/26 08:52:46;;;;;;;10.10;9.33;;;8.20;99.90;;;;;;4879291;29;20792;-76
2023/12/26 08:55:13;;;;;;;9.97;9.30;;;8.30;99.90;;;;;;4878938;29;20201;-76
2023/12/26 08:57:40;;;;;;;9.87;9.17;;;8.40;99.90;;;;;;4893240;29;20206;-74
2023/12/26 09:00:12;;;;;;;10.63;9.93;;;8.40;99.90;;;;;;4879141;29;20221;-75
2023/12/26 09:02:39;;;;;;;10.03;9.27;;;8.50;99.90;;;;;;4877898;29;20225;-75
2023/12/26 09:05:07;;;;;;;10.03;9.43;;;8.50;99.90;;;;;;4879119;29;20202;-75
2023/12/26 09:07:34;;;;;;;10.00;9.23;;;8.60;99.90;;;;;;4882665;29;20753;-76
2023/12/26 09:10:02;;;;;;;10.43;9.70;;;8.60;99.90;;;;;;4893343;29;20748;-76
2023/12/26 09:12:29;;;;;;;10.40;9.60;;;8.70;99.90;;;;;;4892965;29;20206;-77
2023/12/26 09:14:56;;;;;;;10.67;9.83;;;8.70;99.90;;;;;;4893092;29;20245;-76
2023/12/26 09:17:24;;;;;;;10.33;9.60;;;8.80;99.90;;;;;;4878662;29;20672;-75
2023/12/26 09:19:51;;;;;;;10.60;9.73;;;8.80;99.90;;;;;;4877561;29;20209;-75
2023/12/26 09:22:18;;;;;;;10.30;9.60;;;8.90;99.90;;;;;;4878678;29;20209;-76
2023/12/26 09:24:45;;;;;;;10.10;9.40;;;8.90;99.90;;;;;;4879181;29;20194;-76
2023/12/26 09:27:12;;;;;;;10.13;9.43;;;8.90;99.90;;;;;;4878874;29;20197;-78
2023/12/26 09:29:39;;;;;;;9.97;9.30;;;9.00;99.90;;;;;;4879384;29;20197;-75
2023/12/26 09:32:06;;;;;;;9.80;9.10;;;9.00;99.90;;;;;;4894286;29;20281;-76
2023/12/26 09:34:34;;;;;;;10.30;9.30;;;9.00;99.90;;;;;;4879362;29;20209;-76
2023/12/26 09:37:02;;;;;;;10.30;9.50;;;9.00;99.90;;;;;;4881913;29;20209;-75
2023/12/26 09:39:28;;;;;;;10.07;9.37;;;9.00;99.90;;;;;;4899854;29;20488;-77
2023/12/26 09:41:57;;;;;;;9.90;9.10;;;9.00;99.90;;;;;;4891157;29;20221;-80
2023/12/26 09:44:24;;;;;;;10.13;9.37;;;9.10;99.90;;;;;;4877089;29;20204;-77
2023/12/26 09:46:51;;;;;;;9.70;8.90;;;9.10;99.90;;;;;;4873873;29;20288;-78
2023/12/26 09:49:18;;;;;;;9.73;9.03;;;9.10;99.90;;;;;;4879550;29;20276;-77
2023/12/26 09:51:49;;;;;;;10.03;9.23;;;9.10;99.90;;;;;;4877342;29;20225;-75
2023/12/26 09:54:18;;;;;;;10.70;9.70;;;9.20;99.90;;;;;;4891907;29;20218;-77
2023/12/26 09:56:45;;;;;;;10.43;9.47;;;9.20;99.90;;;;;;4878480;29;20198;-77
2023/12/26 09:59:13;;;;;;;9.80;9.13;;;9.20;99.90;;;;;;4881558;29;20221;-79
2023/12/26 10:01:40;;;;;;;9.70;9.00;;;9.20;99.90;;;;;;4894767;29;20264;-77
2023/12/26 10:04:07;;;;;;;9.60;9.00;;;9.30;99.90;;;;;;4904801;29;20315;-77
2023/12/26 10:06:34;;;;;;;10.20;9.50;;;9.30;99.90;;;;;;4896532;29;20622;-79
2023/12/26 10:09:02;;;;;;;10.17;9.47;;;9.40;99.90;;;;;;4879711;29;20209;-77
2023/12/26 10:11:29;;;;;;;9.87;9.03;;;9.40;99.90;;;;;;4894307;29;20229;-77
2023/12/26 10:13:58;;;;;;;10.03;9.17;;;9.40;99.90;;;;;;4898470;29;20228;-80
2023/12/26 10:16:29;;;;;;;10.03;9.33;;;9.40;99.90;;;;;;4875972;29;20197;-78
2023/12/26 10:18:55;;;;;;;9.90;9.10;;;9.50;99.90;;;;;;4886729;29;20684;-77
2023/12/26 10:21:22;;;;;;;9.70;9.10;;;9.50;99.90;;;;;;4879047;29;20245;-77
2023/12/26 10:23:51;;;;;;;9.83;9.13;;;9.50;99.90;;;;;;4893870;29;20221;-77
2023/12/26 10:26:19;;;;;;;10.53;9.83;;;9.60;99.90;;;;;;4881406;29;20251;-78
2023/12/26 10:28:46;;;;;;;10.40;9.80;;;9.60;99.90;;;;;;4881003;29;20206;-76
2023/12/26 10:31:14;;;;;;;10.53;9.83;;;9.60;99.90;;;;;;4881972;29;20229;-78
2023/12/26 10:33:42;;;;;;;11.07;10.27;;;9.70;99.90;;;;;;4881876;29;20284;-78
2023/12/26 10:36:10;;;;;;;10.67;9.87;;;9.80;99.90;;;;;;4882450;29;20216;-78
2023/12/26 10:38:37;;;;;;;10.10;9.40;;;9.80;99.90;;;;;;4882047;29;20208;-78
2023/12/26 10:41:07;;;;;;;11.50;10.50;;;9.90;99.90;;;;;;4898969;29;20238;-77
2023/12/26 10:43:39;;;;;;;12.70;11.10;;;9.90;99.90;;;;;;4896162;29;20769;-77
2023/12/26 10:46:08;;;;;;;11.63;10.73;;;10.00;99.90;;;;;;4896385;29;20214;-77
2023/12/26 10:48:35;;;;;;;10.90;10.00;;;10.10;99.90;;;;;;4882098;29;20242;-77
2023/12/26 10:51:02;;;;;;;10.83;9.87;;;10.10;99.90;;;;;;4881641;29;20652;-77
2023/12/26 10:53:36;;;;;;;10.73;9.93;;;10.10;99.90;;;;;;4882153;29;20248;-77
2023/12/26 10:56:05;;;;;;;10.03;9.17;;;10.10;99.90;;;;;;4882183;29;20646;-77
2023/12/26 10:58:33;;;;;;;9.90;9.20;;;10.20;99.90;;;;;;4881682;29;20209;-77
2023/12/26 11:01:01;;;;;;;10.30;9.40;;;10.20;99.90;;;;;;4896206;29;20644;-77
2023/12/26 11:03:30;;;;;;;10.47;9.57;;;10.30;99.90;;;;;;4897036;29;20293;-81
2023/12/26 11:05:57;;;;;;;10.43;9.50;;;10.30;99.90;;;;;;4880889;29;20612;-78
2023/12/26 11:08:23;;;;;;;10.37;9.67;;;10.20;99.90;;;;;;4882735;29;20260;-78
2023/12/26 11:10:49;;;;;;;10.47;9.67;;;10.20;99.90;;;;;;4882267;29;20226;-78
2023/12/26 11:13:16;;;;;;;10.37;9.57;;;10.20;99.90;;;;;;4875478;29;20186;-77
2023/12/26 11:15:44;;;;;;;10.83;10.07;;;10.20;99.90;;;;;;4882658;29;20206;-77
2023/12/26 11:18:13;;;;;;;11.17;10.07;;;10.20;99.90;;;;;;4897341;29;20297;-78
2023/12/26 11:20:41;;;;;;;10.23;9.33;;;10.30;99.90;;;;;;4888627;29;20227;-77
2023/12/26 11:23:08;;;;;;;9.93;9.23;;;10.30;99.90;;;;;;4896235;29;20274;-77
2023/12/26 11:25:34;;;;;;;10.00;9.20;;;10.40;99.90;;;;;;4898398;29;20202;-77
2023/12/26 11:28:01;;;;;;;10.87;10.20;;;10.50;99.90;;;;;;4898050;29;20195;-76
2023/12/26 11:30:28;;;;;;;10.63;9.73;;;10.50;99.90;;;;;;4898250;29;20242;-78
2023/12/26 11:32:54;;;;;;;11.23;10.33;;;10.60;99.90;;;;;;4885643;29;20200;-78
2023/12/26 11:35:22;;;;;;;10.93;10.23;;;10.60;99.90;;;;;;4898229;29;20216;-78
2023/12/26 11:37:51;;;;;;;11.23;10.40;;;10.70;99.90;;;;;;4884297;29;20263;-78
2023/12/26 11:40:17;;;;;;;11.10;10.07;;;10.70;99.90;;;;;;4897917;29;20219;-76
2023/12/26 11:42:44;;;;;;;11.23;10.33;;;10.80;99.90;;;;;;4885276;29;20254;-77
2023/12/26 11:45:11;;;;;;;11.13;10.37;;;10.90;99.90;;;;;;4898474;29;20278;-78
2023/12/26 11:47:37;;;;;;;11.00;10.10;;;10.90;99.90;;;;;;4885344;29;20199;-78
2023/12/26 11:50:04;;;;;;;11.10;10.30;;;11.00;99.90;;;;;;4883446;29;20339;-77
2023/12/26 11:52:31;;;;;;;10.93;10.03;;;11.10;99.90;;;;;;4881990;29;20275;-78
2023/12/26 11:54:57;;;;;;;10.50;9.80;;;11.10;99.90;;;;;;4882552;29;20757;-76
2023/12/26 11:57:24;;;;;;;10.93;10.23;;;11.20;99.90;;;;;;4896988;29;20237;-79
2023/12/26 11:59:50;;;;;;;11.07;10.27;;;11.20;99.90;;;;;;4881015;29;20239;-77
2023/12/26 12:02:16;;;;;;;11.37;10.60;;;11.20;99.90;;;;;;4898163;29;20228;-78
2023/12/26 12:04:43;;;;;;;10.83;10.00;;;11.30;99.90;;;;;;4883071;29;20259;-81
2023/12/26 12:07:12;;;;;;;11.00;10.13;;;11.30;99.90;;;;;;4880482;29;20268;-79
2023/12/26 12:09:39;;;;;;;11.17;10.40;;;11.40;99.90;;;;;;4880575;29;20239;-80
2023/12/26 12:12:06;;;;;;;10.80;10.00;;;11.50;99.90;;;;;;4881523;29;20225;-79
2023/12/26 12:14:32;;;;;;;11.07;10.37;;;11.50;99.90;;;;;;4889508;29;20209;-78
2023/12/26 12:17:02;;;;;;;10.93;10.13;;;11.50;99.90;;;;;;4896539;29;20197;-79
2023/12/26 12:19:29;;;;;;;10.90;10.10;;;11.50;99.90;;;;;;4880682;29;20204;-77
2023/12/26 12:21:55;;;;;;;10.83;10.13;;;11.50;99.90;;;;;;4881760;29;20611;-77
2023/12/26 12:24:21;;;;;;;10.93;10.10;;;11.40;99.90;;;;;;4881942;29;20236;-77
2023/12/26 12:27:02;;;;;;;10.60;9.80;;;11.40;99.90;;;;;;4881748;29;20238;-77
2023/12/26 12:29:56;;;;;;;10.20;9.40;;;11.30;99.90;;;;;;4881334;29;20203;-77
2023/12/26 12:32:23;;;;;;;10.57;9.87;;;11.30;99.90;;;;;;4895664;29;20236;-77
2023/12/26 12:35:10;;;;;;;10.30;9.50;;;11.30;99.90;;;;;;4881583;29;20207;-77
2023/12/26 12:37:37;;;;;;;10.30;9.50;;;11.30;99.90;;;;;;4895970;29;20685;-77
2023/12/26 12:40:04;;;;;;;10.77;9.97;;;11.30;99.90;;;;;;4891372;29;20228;-77
2023/12/26 12:42:33;;;;;;;11.43;10.53;;;11.30;99.90;;;;;;4894832;29;20224;-77
2023/12/26 12:45:00;;;;;;;10.80;10.10;;;11.30;99.90;;;;;;4895242;29;20218;-77
2023/12/26 12:47:27;;;;;;;11.30;10.30;;;11.30;99.90;;;;;;4895645;29;20747;-77
2023/12/26 12:49:54;;;;;;;11.03;10.33;;;11.30;99.90;;;;;;4881936;29;20255;-77
2023/12/26 12:52:21;;;;;;;11.40;10.70;;;11.30;99.90;;;;;;4894418;29;20204;-77
2023/12/26 12:54:50;;;;;;;10.80;10.10;;;11.30;99.90;;;;;;4894728;29;20211;-78
2023/12/26 12:57:15;;;;;;;11.40;10.70;;;11.40;99.90;;;;;;4894620;29;20238;-77
2023/12/26 12:59:47;;;;;;;11.40;10.60;;;11.40;99.90;;;;;;4896648;29;20209;-76
2023/12/26 13:02:13;;;;;;;11.30;10.50;;;11.50;99.90;;;;;;4878365;29;20208;-77
2023/12/26 13:04:42;;;;;;;10.47;9.87;;;11.50;99.90;;;;;;4880253;29;20237;-78